This is the latest recevied weather packets stored in our database for station/object AC5CM. If no packets are shown the sender has not sent any weather packets the latest 10 day(s).
| Time | Temp. | Humidity | Pressure | Rain* | Wind** | Luminosity | Snow |
|---|---|---|---|---|---|---|---|
| 1777849020 | 25.56° C | 40% | 1019.2 hPa | 0 mm | - | - | - |
| 1777848720 | 25.56° C | 38% | 1019.2 hPa | 0 mm | - | - | - |
| 1777848417 | 25.56° C | 39% | 1019.4 hPa | 0 mm | - | - | - |
| 1777848115 | 25.56° C | 40% | 1019.3 hPa | 0 mm | - | - | - |
| 1777847813 | 26.11° C | 39% | 1019.5 hPa | 0 mm | - | - | - |
| 1777847509 | 26.11° C | 39% | 1019.7 hPa | 0 mm | - | - | - |
| 1777847206 | 25.56° C | 39% | 1019.5 hPa | 0 mm | - | - | - |
| 1777846904 | 26.11° C | 40% | 1019.7 hPa | 0 mm | - | - | - |
| 1777846602 | 25.56° C | 40% | 1019.8 hPa | 0 mm | - | - | - |
| 1777846299 | 25.56° C | 39% | 1019.8 hPa | 0 mm | - | - | - |
| 1777845996 | 25.56° C | 40% | 1019.8 hPa | 0 mm | - | - | - |
| 1777845692 | 25° C | 42% | 1019.7 hPa | 0 mm | - | - | - |
| 1777845390 | 25° C | 41% | 1019.9 hPa | 0 mm | - | - | - |
| 1777845086 | 25° C | 41% | 1019.8 hPa | 0 mm | - | - | - |
| 1777844785 | 25° C | 41% | 1019.9 hPa | 0 mm | - | - | - |
| 1777844481 | 26.67° C | 38% | 1020 hPa | 0 mm | - | - | - |
| 1777844180 | 26.11° C | 39% | 1020.1 hPa | 0 mm | - | - | - |
| 1777843876 | 26.67° C | 36% | 1020.3 hPa | 0 mm | - | - | - |
| 1777843574 | 27.78° C | 32% | 1020.2 hPa | 0 mm | - | - | - |
| 1777843271 | 27.22° C | 32% | 1020 hPa | 0 mm | - | - | - |
| 1777842969 | 27.22° C | 31% | 1020.3 hPa | 0 mm | - | - | - |
| 1777842663 | 26.67° C | 32% | 1020.2 hPa | 0 mm | - | - | - |
| 1777842360 | 26.67° C | 30% | 1020.4 hPa | 0 mm | - | - | - |
| 1777842056 | 27.22° C | 32% | 1020.6 hPa | 0 mm | - | - | - |
| 1777841753 | 26.67° C | 32% | 1020.4 hPa | 0 mm | - | - | - |
* Rain latest hour (hover to see other rain measurements)
** Current wind speed in m/s (hover to see current wind gust speed)